sensor_id;sensor_type;location;lat;lon;timestamp;P1;durP1;ratioP1;P2;durP2;ratioP2
17372;SDS011;8803;48.116;11.590;2023-07-29T00:00:22;3.13;;;2.67;;
17372;SDS011;8803;48.116;11.590;2023-07-29T00:02:28;2.63;;;2.40;;
17372;SDS011;8803;48.116;11.590;2023-07-29T00:04:33;2.60;;;2.40;;
17372;SDS011;8803;48.116;11.590;2023-07-29T00:06:37;3.40;;;3.03;;
17372;SDS011;8803;48.116;11.590;2023-07-29T00:08:41;4.30;;;2.80;;
17372;SDS011;8803;48.116;11.590;2023-07-29T00:10:44;3.23;;;2.60;;
17372;SDS011;8803;48.116;11.590;2023-07-29T00:12:48;3.10;;;2.47;;
17372;SDS011;8803;48.116;11.590;2023-07-29T00:14:52;3.27;;;2.50;;
17372;SDS011;8803;48.116;11.590;2023-07-29T00:16:56;2.70;;;2.37;;
17372;SDS011;8803;48.116;11.590;2023-07-29T00:19:02;2.47;;;2.27;;
17372;SDS011;8803;48.116;11.590;2023-07-29T00:21:05;2.53;;;2.33;;
17372;SDS011;8803;48.116;11.590;2023-07-29T00:23:09;2.73;;;2.40;;
17372;SDS011;8803;48.116;11.590;2023-07-29T00:25:13;4.50;;;2.30;;
17372;SDS011;8803;48.116;11.590;2023-07-29T00:27:17;2.90;;;2.60;;
17372;SDS011;8803;48.116;11.590;2023-07-29T00:29:21;2.40;;;2.20;;
17372;SDS011;8803;48.116;11.590;2023-07-29T00:31:25;3.17;;;2.73;;
17372;SDS011;8803;48.116;11.590;2023-07-29T00:33:39;2.33;;;2.13;;
17372;SDS011;8803;48.116;11.590;2023-07-29T00:35:43;2.53;;;2.33;;
17372;SDS011;8803;48.116;11.590;2023-07-29T00:37:47;2.80;;;2.40;;
17372;SDS011;8803;48.116;11.590;2023-07-29T00:39:50;3.43;;;2.40;;
17372;SDS011;8803;48.116;11.590;2023-07-29T00:41:54;2.73;;;2.50;;
17372;SDS011;8803;48.116;11.590;2023-07-29T00:43:58;2.73;;;2.40;;
17372;SDS011;8803;48.116;11.590;2023-07-29T00:46:02;2.87;;;2.60;;
17372;SDS011;8803;48.116;11.590;2023-07-29T00:48:06;2.60;;;2.20;;
17372;SDS011;8803;48.116;11.590;2023-07-29T00:50:10;2.97;;;2.40;;
17372;SDS011;8803;48.116;11.590;2023-07-29T00:52:15;3.80;;;2.50;;
17372;SDS011;8803;48.116;11.590;2023-07-29T00:54:19;4.10;;;2.50;;
17372;SDS011;8803;48.116;11.590;2023-07-29T00:56:23;3.27;;;2.53;;
17372;SDS011;8803;48.116;11.590;2023-07-29T00:58:35;2.63;;;2.43;;
17372;SDS011;8803;48.116;11.590;2023-07-29T01:00:39;2.73;;;2.40;;
17372;SDS011;8803;48.116;11.590;2023-07-29T01:02:43;2.47;;;2.20;;
17372;SDS011;8803;48.116;11.590;2023-07-29T01:04:56;2.80;;;2.30;;
17372;SDS011;8803;48.116;11.590;2023-07-29T01:07:03;2.30;;;2.03;;
17372;SDS011;8803;48.116;11.590;2023-07-29T01:09:19;2.20;;;2.00;;
17372;SDS011;8803;48.116;11.590;2023-07-29T01:11:29;3.23;;;2.33;;
17372;SDS011;8803;48.116;11.590;2023-07-29T01:13:39;2.90;;;2.50;;
17372;SDS011;8803;48.116;11.590;2023-07-29T01:15:52;3.77;;;2.57;;
17372;SDS011;8803;48.116;11.590;2023-07-29T01:18:02;2.60;;;2.23;;
17372;SDS011;8803;48.116;11.590;2023-07-29T01:20:07;2.70;;;2.10;;
17372;SDS011;8803;48.116;11.590;2023-07-29T01:22:14;2.83;;;2.20;;
17372;SDS011;8803;48.116;11.590;2023-07-29T01:24:21;2.30;;;2.10;;
17372;SDS011;8803;48.116;11.590;2023-07-29T01:26:25;2.43;;;2.23;;
17372;SDS011;8803;48.116;11.590;2023-07-29T01:28:30;2.83;;;2.23;;
17372;SDS011;8803;48.116;11.590;2023-07-29T01:30:37;1.90;;;1.80;;
17372;SDS011;8803;48.116;11.590;2023-07-29T01:32:50;2.57;;;2.10;;
17372;SDS011;8803;48.116;11.590;2023-07-29T01:34:58;2.90;;;2.37;;
17372;SDS011;8803;48.116;11.590;2023-07-29T01:37:04;2.20;;;2.00;;
17372;SDS011;8803;48.116;11.590;2023-07-29T01:39:11;2.20;;;2.00;;
17372;SDS011;8803;48.116;11.590;2023-07-29T01:41:17;2.63;;;2.10;;
17372;SDS011;8803;48.116;11.590;2023-07-29T01:43:21;2.80;;;2.20;;
17372;SDS011;8803;48.116;11.590;2023-07-29T01:45:27;2.63;;;2.07;;
17372;SDS011;8803;48.116;11.590;2023-07-29T01:47:32;2.77;;;2.03;;
17372;SDS011;8803;48.116;11.590;2023-07-29T01:49:37;2.87;;;2.10;;
17372;SDS011;8803;48.116;11.590;2023-07-29T01:51:41;2.40;;;2.20;;
17372;SDS011;8803;48.116;11.590;2023-07-29T01:53:45;2.50;;;2.30;;
17372;SDS011;8803;48.116;11.590;2023-07-29T01:55:49;2.77;;;2.17;;
17372;SDS011;8803;48.116;11.590;2023-07-29T01:57:53;3.60;;;2.30;;
17372;SDS011;8803;48.116;11.590;2023-07-29T01:59:56;2.47;;;2.27;;
17372;SDS011;8803;48.116;11.590;2023-07-29T02:02:01;2.27;;;2.07;;
17372;SDS011;8803;48.116;11.590;2023-07-29T02:04:05;3.00;;;2.20;;
17372;SDS011;8803;48.116;11.590;2023-07-29T02:06:08;2.67;;;2.47;;
17372;SDS011;8803;48.116;11.590;2023-07-29T02:08:12;2.30;;;2.10;;
17372;SDS011;8803;48.116;11.590;2023-07-29T02:10:17;3.97;;;2.37;;
17372;SDS011;8803;48.116;11.590;2023-07-29T02:12:21;2.20;;;2.00;;
17372;SDS011;8803;48.116;11.590;2023-07-29T02:14:24;2.43;;;2.23;;
17372;SDS011;8803;48.116;11.590;2023-07-29T02:16:28;4.47;;;2.07;;
17372;SDS011;8803;48.116;11.590;2023-07-29T02:18:33;2.53;;;2.23;;
17372;SDS011;8803;48.116;11.590;2023-07-29T02:20:46;2.87;;;2.57;;
17372;SDS011;8803;48.116;11.590;2023-07-29T02:22:50;2.43;;;2.23;;
17372;SDS011;8803;48.116;11.590;2023-07-29T02:24:54;2.30;;;2.10;;
17372;SDS011;8803;48.116;11.590;2023-07-29T02:26:58;2.50;;;2.30;;
17372;SDS011;8803;48.116;11.590;2023-07-29T02:29:02;3.43;;;2.07;;
17372;SDS011;8803;48.116;11.590;2023-07-29T02:31:13;2.27;;;2.07;;
17372;SDS011;8803;48.116;11.590;2023-07-29T02:33:18;2.43;;;2.23;;
17372;SDS011;8803;48.116;11.590;2023-07-29T02:35:22;3.00;;;2.60;;
17372;SDS011;8803;48.116;11.590;2023-07-29T02:37:35;2.77;;;2.57;;
17372;SDS011;8803;48.116;11.590;2023-07-29T02:39:38;2.47;;;2.27;;
17372;SDS011;8803;48.116;11.590;2023-07-29T02:41:42;2.27;;;2.07;;
17372;SDS011;8803;48.116;11.590;2023-07-29T02:43:48;2.40;;;2.20;;
17372;SDS011;8803;48.116;11.590;2023-07-29T02:45:52;2.30;;;2.10;;
17372;SDS011;8803;48.116;11.590;2023-07-29T02:47:56;2.40;;;2.20;;
17372;SDS011;8803;48.116;11.590;2023-07-29T02:50:09;3.60;;;2.13;;
17372;SDS011;8803;48.116;11.590;2023-07-29T02:52:13;2.77;;;2.30;;
17372;SDS011;8803;48.116;11.590;2023-07-29T02:54:17;2.73;;;2.30;;
17372;SDS011;8803;48.116;11.590;2023-07-29T02:56:29;2.67;;;2.33;;
17372;SDS011;8803;48.116;11.590;2023-07-29T02:58:33;3.90;;;2.47;;
17372;SDS011;8803;48.116;11.590;2023-07-29T03:00:37;2.90;;;2.40;;
17372;SDS011;8803;48.116;11.590;2023-07-29T03:02:42;4.63;;;2.30;;
17372;SDS011;8803;48.116;11.590;2023-07-29T03:04:48;2.40;;;2.20;;
17372;SDS011;8803;48.116;11.590;2023-07-29T03:06:52;3.53;;;2.20;;
17372;SDS011;8803;48.116;11.590;2023-07-29T03:08:56;2.43;;;2.23;;
17372;SDS011;8803;48.116;11.590;2023-07-29T03:11:04;1.97;;;1.80;;
17372;SDS011;8803;48.116;11.590;2023-07-29T03:13:08;2.50;;;2.30;;
17372;SDS011;8803;48.116;11.590;2023-07-29T03:15:13;3.30;;;2.23;;
17372;SDS011;8803;48.116;11.590;2023-07-29T03:17:17;2.50;;;2.30;;
17372;SDS011;8803;48.116;11.590;2023-07-29T03:19:30;2.50;;;2.30;;
17372;SDS011;8803;48.116;11.590;2023-07-29T03:21:33;2.53;;;2.33;;
17372;SDS011;8803;48.116;11.590;2023-07-29T03:23:38;3.13;;;2.30;;
17372;SDS011;8803;48.116;11.590;2023-07-29T03:25:42;2.60;;;2.40;;
17372;SDS011;8803;48.116;11.590;2023-07-29T03:27:48;3.10;;;2.10;;
17372;SDS011;8803;48.116;11.590;2023-07-29T03:29:51;2.87;;;2.37;;
17372;SDS011;8803;48.116;11.590;2023-07-29T03:31:56;9.07;;;7.03;;
17372;SDS011;8803;48.116;11.590;2023-07-29T03:34:00;13.17;;;11.43;;
17372;SDS011;8803;48.116;11.590;2023-07-29T03:36:04;6.73;;;5.43;;
17372;SDS011;8803;48.116;11.590;2023-07-29T03:38:08;6.53;;;5.87;;
17372;SDS011;8803;48.116;11.590;2023-07-29T03:40:12;3.43;;;2.50;;
17372;SDS011;8803;48.116;11.590;2023-07-29T03:42:16;2.83;;;2.57;;
17372;SDS011;8803;48.116;11.590;2023-07-29T03:44:29;2.50;;;2.30;;
17372;SDS011;8803;48.116;11.590;2023-07-29T03:46:33;2.90;;;2.07;;
17372;SDS011;8803;48.116;11.590;2023-07-29T03:48:45;2.17;;;1.93;;
17372;SDS011;8803;48.116;11.590;2023-07-29T03:50:49;2.83;;;2.10;;
17372;SDS011;8803;48.116;11.590;2023-07-29T03:52:53;3.20;;;2.07;;
17372;SDS011;8803;48.116;11.590;2023-07-29T03:54:57;2.33;;;2.13;;
17372;SDS011;8803;48.116;11.590;2023-07-29T03:57:00;2.03;;;1.83;;
17372;SDS011;8803;48.116;11.590;2023-07-29T03:59:05;2.30;;;2.10;;
17372;SDS011;8803;48.116;11.590;2023-07-29T04:01:09;2.33;;;1.97;;
17372;SDS011;8803;48.116;11.590;2023-07-29T04:03:13;2.47;;;1.77;;
17372;SDS011;8803;48.116;11.590;2023-07-29T04:05:17;2.07;;;1.87;;
17372;SDS011;8803;48.116;11.590;2023-07-29T04:07:30;3.90;;;2.10;;
17372;SDS011;8803;48.116;11.590;2023-07-29T04:09:34;2.10;;;1.90;;
17372;SDS011;8803;48.116;11.590;2023-07-29T04:11:38;2.33;;;1.80;;
17372;SDS011;8803;48.116;11.590;2023-07-29T04:13:57;2.30;;;2.10;;
17372;SDS011;8803;48.116;11.590;2023-07-29T04:16:01;2.17;;;1.97;;
17372;SDS011;8803;48.116;11.590;2023-07-29T04:18:05;2.23;;;1.93;;
17372;SDS011;8803;48.116;11.590;2023-07-29T04:20:10;2.70;;;2.17;;
17372;SDS011;8803;48.116;11.590;2023-07-29T04:22:15;3.27;;;2.43;;
17372;SDS011;8803;48.116;11.590;2023-07-29T04:24:19;3.00;;;2.53;;
17372;SDS011;8803;48.116;11.590;2023-07-29T04:26:24;2.57;;;2.23;;
17372;SDS011;8803;48.116;11.590;2023-07-29T04:28:28;2.20;;;2.00;;
17372;SDS011;8803;48.116;11.590;2023-07-29T04:30:32;2.47;;;2.17;;
17372;SDS011;8803;48.116;11.590;2023-07-29T04:32:37;2.53;;;2.10;;
17372;SDS011;8803;48.116;11.590;2023-07-29T04:34:43;2.03;;;1.80;;
17372;SDS011;8803;48.116;11.590;2023-07-29T04:36:47;2.67;;;2.23;;
17372;SDS011;8803;48.116;11.590;2023-07-29T04:38:51;3.77;;;2.17;;
17372;SDS011;8803;48.116;11.590;2023-07-29T04:40:55;2.67;;;2.47;;
17372;SDS011;8803;48.116;11.590;2023-07-29T04:43:00;2.60;;;2.00;;
17372;SDS011;8803;48.116;11.590;2023-07-29T04:45:13;2.80;;;1.90;;
17372;SDS011;8803;48.116;11.590;2023-07-29T04:47:18;2.47;;;2.10;;
17372;SDS011;8803;48.116;11.590;2023-07-29T04:49:21;2.73;;;2.13;;
17372;SDS011;8803;48.116;11.590;2023-07-29T04:51:34;2.53;;;2.10;;
17372;SDS011;8803;48.116;11.590;2023-07-29T04:53:38;2.33;;;2.13;;
17372;SDS011;8803;48.116;11.590;2023-07-29T04:55:42;2.50;;;1.87;;
17372;SDS011;8803;48.116;11.590;2023-07-29T04:57:46;2.13;;;1.90;;
17372;SDS011;8803;48.116;11.590;2023-07-29T04:59:50;1.97;;;1.77;;
17372;SDS011;8803;48.116;11.590;2023-07-29T05:01:53;2.00;;;1.70;;
17372;SDS011;8803;48.116;11.590;2023-07-29T05:03:57;1.90;;;1.80;;
17372;SDS011;8803;48.116;11.590;2023-07-29T05:06:01;2.30;;;2.10;;
17372;SDS011;8803;48.116;11.590;2023-07-29T05:08:05;2.37;;;1.98;;
17372;SDS011;8803;48.116;11.590;2023-07-29T05:10:09;2.02;;;1.82;;
17372;SDS011;8803;48.116;11.590;2023-07-29T05:12:13;2.02;;;1.82;;
17372;SDS011;8803;48.116;11.590;2023-07-29T05:14:19;2.35;;;2.10;;
17372;SDS011;8803;48.116;11.590;2023-07-29T05:16:23;1.60;;;1.50;;
17372;SDS011;8803;48.116;11.590;2023-07-29T05:18:26;1.62;;;1.52;;
17372;SDS011;8803;48.116;11.590;2023-07-29T05:20:30;1.67;;;1.45;;
17372;SDS011;8803;48.116;11.590;2023-07-29T05:22:34;3.02;;;1.72;;
17372;SDS011;8803;48.116;11.590;2023-07-29T05:24:38;1.50;;;1.40;;
17372;SDS011;8803;48.116;11.590;2023-07-29T05:26:42;1.98;;;1.60;;
17372;SDS011;8803;48.116;11.590;2023-07-29T05:28:45;1.50;;;1.40;;
17372;SDS011;8803;48.116;11.590;2023-07-29T05:30:49;2.08;;;1.72;;
17372;SDS011;8803;48.116;11.590;2023-07-29T05:32:53;1.80;;;1.70;;
17372;SDS011;8803;48.116;11.590;2023-07-29T05:35:06;1.60;;;1.50;;
17372;SDS011;8803;48.116;11.590;2023-07-29T05:37:11;1.82;;;1.72;;
17372;SDS011;8803;48.116;11.590;2023-07-29T05:39:15;1.70;;;1.60;;
17372;SDS011;8803;48.116;11.590;2023-07-29T05:41:27;1.52;;;1.42;;
17372;SDS011;8803;48.116;11.590;2023-07-29T05:43:31;1.80;;;1.50;;
17372;SDS011;8803;48.116;11.590;2023-07-29T05:45:35;1.42;;;1.32;;
17372;SDS011;8803;48.116;11.590;2023-07-29T05:47:47;1.70;;;1.60;;
17372;SDS011;8803;48.116;11.590;2023-07-29T05:49:51;1.32;;;1.22;;
17372;SDS011;8803;48.116;11.590;2023-07-29T05:51:55;2.83;;;1.57;;
17372;SDS011;8803;48.116;11.590;2023-07-29T05:54:09;1.55;;;1.45;;
17372;SDS011;8803;48.116;11.590;2023-07-29T05:56:13;2.20;;;1.62;;
17372;SDS011;8803;48.116;11.590;2023-07-29T05:58:17;1.72;;;1.60;;
17372;SDS011;8803;48.116;11.590;2023-07-29T06:00:20;2.05;;;1.87;;
17372;SDS011;8803;48.116;11.590;2023-07-29T06:02:33;1.50;;;1.40;;
17372;SDS011;8803;48.116;11.590;2023-07-29T06:04:37;4.07;;;1.73;;
17372;SDS011;8803;48.116;11.590;2023-07-29T06:06:41;1.70;;;1.60;;
17372;SDS011;8803;48.116;11.590;2023-07-29T06:08:44;1.95;;;1.67;;
17372;SDS011;8803;48.116;11.590;2023-07-29T06:10:48;3.30;;;1.70;;
17372;SDS011;8803;48.116;11.590;2023-07-29T06:12:52;2.62;;;1.80;;
17372;SDS011;8803;48.116;11.590;2023-07-29T06:14:56;3.13;;;2.00;;
17372;SDS011;8803;48.116;11.590;2023-07-29T06:17:08;3.73;;;1.93;;
17372;SDS011;8803;48.116;11.590;2023-07-29T06:19:13;4.20;;;1.70;;
17372;SDS011;8803;48.116;11.590;2023-07-29T06:21:17;2.50;;;2.30;;
17372;SDS011;8803;48.116;11.590;2023-07-29T06:23:21;3.63;;;3.23;;
17372;SDS011;8803;48.116;11.590;2023-07-29T06:25:24;2.77;;;2.47;;
17372;SDS011;8803;48.116;11.590;2023-07-29T06:27:28;2.30;;;2.10;;
17372;SDS011;8803;48.116;11.590;2023-07-29T06:29:32;1.83;;;1.70;;
17372;SDS011;8803;48.116;11.590;2023-07-29T06:31:36;2.67;;;1.80;;
17372;SDS011;8803;48.116;11.590;2023-07-29T06:33:48;3.20;;;2.10;;
17372;SDS011;8803;48.116;11.590;2023-07-29T06:35:52;2.80;;;2.40;;
17372;SDS011;8803;48.116;11.590;2023-07-29T06:37:56;2.60;;;2.27;;
17372;SDS011;8803;48.116;11.590;2023-07-29T06:40:09;2.57;;;2.30;;
17372;SDS011;8803;48.116;11.590;2023-07-29T06:42:13;2.63;;;1.93;;
17372;SDS011;8803;48.116;11.590;2023-07-29T06:44:17;2.23;;;2.03;;
17372;SDS011;8803;48.116;11.590;2023-07-29T06:46:30;1.87;;;1.70;;
17372;SDS011;8803;48.116;11.590;2023-07-29T06:48:34;2.60;;;1.70;;
17372;SDS011;8803;48.116;11.590;2023-07-29T06:50:38;3.40;;;1.90;;
17372;SDS011;8803;48.116;11.590;2023-07-29T06:52:42;2.00;;;1.80;;
17372;SDS011;8803;48.116;11.590;2023-07-29T06:54:54;1.70;;;1.60;;
17372;SDS011;8803;48.116;11.590;2023-07-29T06:56:58;1.97;;;1.77;;
17372;SDS011;8803;48.116;11.590;2023-07-29T06:59:02;3.43;;;1.90;;
17372;SDS011;8803;48.116;11.590;2023-07-29T07:01:06;1.97;;;1.77;;
17372;SDS011;8803;48.116;11.590;2023-07-29T07:03:10;2.03;;;1.83;;
17372;SDS011;8803;48.116;11.590;2023-07-29T07:05:14;2.20;;;1.70;;
17372;SDS011;8803;48.116;11.590;2023-07-29T07:07:18;1.80;;;1.57;;
17372;SDS011;8803;48.116;11.590;2023-07-29T07:09:30;2.73;;;1.90;;
17372;SDS011;8803;48.116;11.590;2023-07-29T07:11:34;2.80;;;1.77;;
17372;SDS011;8803;48.116;11.590;2023-07-29T07:13:38;1.70;;;1.60;;
17372;SDS011;8803;48.116;11.590;2023-07-29T07:15:41;2.10;;;1.90;;
17372;SDS011;8803;48.116;11.590;2023-07-29T07:17:46;1.97;;;1.80;;
17372;SDS011;8803;48.116;11.590;2023-07-29T07:19:49;2.20;;;2.00;;
17372;SDS011;8803;48.116;11.590;2023-07-29T07:21:53;2.77;;;2.10;;
17372;SDS011;8803;48.116;11.590;2023-07-29T07:23:57;3.43;;;2.13;;
17372;SDS011;8803;48.116;11.590;2023-07-29T07:26:10;2.03;;;1.83;;
17372;SDS011;8803;48.116;11.590;2023-07-29T07:28:13;2.57;;;1.90;;
17372;SDS011;8803;48.116;11.590;2023-07-29T07:30:27;2.97;;;1.90;;
17372;SDS011;8803;48.116;11.590;2023-07-29T07:32:31;2.10;;;1.90;;
17372;SDS011;8803;48.116;11.590;2023-07-29T07:34:34;2.20;;;1.90;;
17372;SDS011;8803;48.116;11.590;2023-07-29T07:36:38;2.20;;;2.00;;
17372;SDS011;8803;48.116;11.590;2023-07-29T07:38:42;2.67;;;1.97;;
17372;SDS011;8803;48.116;11.590;2023-07-29T07:40:55;1.87;;;1.77;;
17372;SDS011;8803;48.116;11.590;2023-07-29T07:42:59;2.50;;;2.30;;
17372;SDS011;8803;48.116;11.590;2023-07-29T07:45:04;2.83;;;2.17;;
17372;SDS011;8803;48.116;11.590;2023-07-29T07:47:17;3.13;;;2.53;;
17372;SDS011;8803;48.116;11.590;2023-07-29T07:49:21;2.67;;;2.07;;
17372;SDS011;8803;48.116;11.590;2023-07-29T07:51:25;2.60;;;2.40;;
17372;SDS011;8803;48.116;11.590;2023-07-29T07:53:29;2.87;;;2.53;;
17372;SDS011;8803;48.116;11.590;2023-07-29T07:55:32;2.63;;;2.37;;
17372;SDS011;8803;48.116;11.590;2023-07-29T07:57:36;4.17;;;2.83;;
17372;SDS011;8803;48.116;11.590;2023-07-29T07:59:40;3.33;;;3.03;;
17372;SDS011;8803;48.116;11.590;2023-07-29T08:01:44;3.53;;;2.60;;
17372;SDS011;8803;48.116;11.590;2023-07-29T08:03:48;2.90;;;2.70;;
17372;SDS011;8803;48.116;11.590;2023-07-29T08:05:52;2.73;;;2.10;;
17372;SDS011;8803;48.116;11.590;2023-07-29T08:07:56;2.90;;;2.60;;
17372;SDS011;8803;48.116;11.590;2023-07-29T08:10:00;2.50;;;2.20;;
17372;SDS011;8803;48.116;11.590;2023-07-29T08:12:04;2.80;;;2.23;;
17372;SDS011;8803;48.116;11.590;2023-07-29T08:14:09;3.57;;;2.50;;
17372;SDS011;8803;48.116;11.590;2023-07-29T08:16:13;3.20;;;2.67;;
17372;SDS011;8803;48.116;11.590;2023-07-29T08:18:16;3.03;;;2.43;;
17372;SDS011;8803;48.116;11.590;2023-07-29T08:20:22;2.30;;;2.10;;
17372;SDS011;8803;48.116;11.590;2023-07-29T08:22:26;4.37;;;2.73;;
17372;SDS011;8803;48.116;11.590;2023-07-29T08:24:29;4.37;;;2.87;;
17372;SDS011;8803;48.116;11.590;2023-07-29T08:26:35;2.60;;;2.40;;
17372;SDS011;8803;48.116;11.590;2023-07-29T08:28:50;3.63;;;2.37;;
17372;SDS011;8803;48.116;11.590;2023-07-29T08:30:54;3.00;;;2.70;;
17372;SDS011;8803;48.116;11.590;2023-07-29T08:32:58;5.03;;;3.20;;
17372;SDS011;8803;48.116;11.590;2023-07-29T08:35:02;4.37;;;3.17;;
17372;SDS011;8803;48.116;11.590;2023-07-29T08:37:06;3.87;;;3.10;;
17372;SDS011;8803;48.116;11.590;2023-07-29T08:39:10;3.27;;;2.97;;
17372;SDS011;8803;48.116;11.590;2023-07-29T08:41:16;4.10;;;2.67;;
17372;SDS011;8803;48.116;11.590;2023-07-29T08:43:29;2.87;;;2.20;;
17372;SDS011;8803;48.116;11.590;2023-07-29T08:45:34;2.83;;;2.53;;
17372;SDS011;8803;48.116;11.590;2023-07-29T08:47:39;2.60;;;2.37;;
17372;SDS011;8803;48.116;11.590;2023-07-29T08:49:42;2.50;;;2.30;;
17372;SDS011;8803;48.116;11.590;2023-07-29T08:51:48;3.07;;;2.77;;
17372;SDS011;8803;48.116;11.590;2023-07-29T08:53:52;3.30;;;3.00;;
17372;SDS011;8803;48.116;11.590;2023-07-29T08:55:57;3.90;;;3.30;;
17372;SDS011;8803;48.116;11.590;2023-07-29T08:58:10;3.50;;;3.20;;
17372;SDS011;8803;48.116;11.590;2023-07-29T09:00:14;3.67;;;3.35;;
17372;SDS011;8803;48.116;11.590;2023-07-29T09:02:19;4.60;;;3.33;;
17372;SDS011;8803;48.116;11.590;2023-07-29T09:04:22;3.37;;;3.07;;
17372;SDS011;8803;48.116;11.590;2023-07-29T09:06:26;3.87;;;3.40;;
17372;SDS011;8803;48.116;11.590;2023-07-29T09:08:31;2.95;;;2.52;;
17372;SDS011;8803;48.116;11.590;2023-07-29T09:10:36;2.92;;;2.62;;
17372;SDS011;8803;48.116;11.590;2023-07-29T09:12:40;4.00;;;2.50;;
17372;SDS011;8803;48.116;11.590;2023-07-29T09:14:44;3.50;;;2.67;;
17372;SDS011;8803;48.116;11.590;2023-07-29T09:16:48;3.67;;;3.17;;
17372;SDS011;8803;48.116;11.590;2023-07-29T09:18:52;5.43;;;4.80;;
17372;SDS011;8803;48.116;11.590;2023-07-29T09:20:58;4.10;;;3.70;;
17372;SDS011;8803;48.116;11.590;2023-07-29T09:23:02;3.92;;;3.62;;
17372;SDS011;8803;48.116;11.590;2023-07-29T09:25:08;4.12;;;2.90;;
17372;SDS011;8803;48.116;11.590;2023-07-29T09:27:17;3.37;;;2.40;;
17372;SDS011;8803;48.116;11.590;2023-07-29T09:29:28;3.08;;;2.77;;
17372;SDS011;8803;48.116;11.590;2023-07-29T09:31:32;3.40;;;3.10;;
17372;SDS011;8803;48.116;11.590;2023-07-29T09:33:36;3.08;;;2.77;;
17372;SDS011;8803;48.116;11.590;2023-07-29T09:35:40;2.85;;;2.55;;
17372;SDS011;8803;48.116;11.590;2023-07-29T09:37:56;3.25;;;2.95;;
17372;SDS011;8803;48.116;11.590;2023-07-29T09:40:00;4.22;;;3.00;;
17372;SDS011;8803;48.116;11.590;2023-07-29T09:42:16;3.92;;;2.58;;
17372;SDS011;8803;48.116;11.590;2023-07-29T09:44:21;2.70;;;2.50;;
17372;SDS011;8803;48.116;11.590;2023-07-29T09:46:25;3.67;;;3.05;;
17372;SDS011;8803;48.116;11.590;2023-07-29T09:48:41;3.37;;;3.08;;
17372;SDS011;8803;48.116;11.590;2023-07-29T09:50:47;3.22;;;2.92;;
17372;SDS011;8803;48.116;11.590;2023-07-29T09:52:51;3.87;;;3.47;;
17372;SDS011;8803;48.116;11.590;2023-07-29T09:55:05;4.47;;;3.17;;
17372;SDS011;8803;48.116;11.590;2023-07-29T09:59:21;4.50;;;3.50;;
17372;SDS011;8803;48.116;11.590;2023-07-29T10:01:26;3.77;;;3.42;;
17372;SDS011;8803;48.116;11.590;2023-07-29T10:03:30;3.35;;;3.05;;
17372;SDS011;8803;48.116;11.590;2023-07-29T10:05:43;3.60;;;3.30;;
17372;SDS011;8803;48.116;11.590;2023-07-29T10:07:47;3.20;;;2.77;;
17372;SDS011;8803;48.116;11.590;2023-07-29T10:09:52;2.75;;;2.55;;
17372;SDS011;8803;48.116;11.590;2023-07-29T10:11:58;4.50;;;3.20;;
17372;SDS011;8803;48.116;11.590;2023-07-29T10:14:02;3.17;;;2.85;;
17372;SDS011;8803;48.116;11.590;2023-07-29T10:16:05;3.65;;;2.83;;
17372;SDS011;8803;48.116;11.590;2023-07-29T10:18:09;3.08;;;2.85;;
17372;SDS011;8803;48.116;11.590;2023-07-29T10:20:13;3.30;;;2.90;;
17372;SDS011;8803;48.116;11.590;2023-07-29T10:22:17;2.58;;;2.37;;
17372;SDS011;8803;48.116;11.590;2023-07-29T10:24:24;3.77;;;3.17;;
17372;SDS011;8803;48.116;11.590;2023-07-29T10:26:30;4.17;;;3.35;;
17372;SDS011;8803;48.116;11.590;2023-07-29T10:28:45;3.52;;;3.22;;
17372;SDS011;8803;48.116;11.590;2023-07-29T10:30:49;3.55;;;3.20;;
17372;SDS011;8803;48.116;11.590;2023-07-29T10:32:54;3.62;;;2.95;;
17372;SDS011;8803;48.116;11.590;2023-07-29T10:35:08;4.33;;;2.90;;
17372;SDS011;8803;48.116;11.590;2023-07-29T10:37:12;3.05;;;2.85;;
17372;SDS011;8803;48.116;11.590;2023-07-29T10:39:17;3.05;;;2.75;;
17372;SDS011;8803;48.116;11.590;2023-07-29T10:41:21;2.87;;;2.67;;
17372;SDS011;8803;48.116;11.590;2023-07-29T10:43:25;3.35;;;3.05;;
17372;SDS011;8803;48.116;11.590;2023-07-29T10:45:36;3.50;;;3.20;;
17372;SDS011;8803;48.116;11.590;2023-07-29T10:47:41;5.62;;;5.12;;
17372;SDS011;8803;48.116;11.590;2023-07-29T10:49:45;3.58;;;3.27;;
17372;SDS011;8803;48.116;11.590;2023-07-29T10:51:51;2.85;;;2.65;;
17372;SDS011;8803;48.116;11.590;2023-07-29T10:53:57;3.35;;;3.05;;
17372;SDS011;8803;48.116;11.590;2023-07-29T10:56:02;3.30;;;3.00;;
17372;SDS011;8803;48.116;11.590;2023-07-29T10:58:07;3.17;;;2.85;;
17372;SDS011;8803;48.116;11.590;2023-07-29T11:00:13;3.83;;;3.27;;
17372;SDS011;8803;48.116;11.590;2023-07-29T11:02:29;3.08;;;2.60;;
17372;SDS011;8803;48.116;11.590;2023-07-29T11:04:45;2.95;;;2.55;;
17372;SDS011;8803;48.116;11.590;2023-07-29T11:07:18;3.87;;;3.02;;
17372;SDS011;8803;48.116;11.590;2023-07-29T11:09:39;2.90;;;2.70;;
17372;SDS011;8803;48.116;11.590;2023-07-29T11:11:44;3.00;;;2.67;;
17372;SDS011;8803;48.116;11.590;2023-07-29T11:13:48;3.10;;;2.90;;
17372;SDS011;8803;48.116;11.590;2023-07-29T11:16:01;3.20;;;2.90;;
17372;SDS011;8803;48.116;11.590;2023-07-29T11:18:05;3.12;;;2.92;;
17372;SDS011;8803;48.116;11.590;2023-07-29T11:20:13;3.90;;;3.45;;
17372;SDS011;8803;48.116;11.590;2023-07-29T11:24:29;3.83;;;3.30;;
17372;SDS011;8803;48.116;11.590;2023-07-29T11:26:32;2.67;;;2.47;;
17372;SDS011;8803;48.116;11.590;2023-07-29T11:28:39;2.30;;;2.10;;
17372;SDS011;8803;48.116;11.590;2023-07-29T11:30:43;2.30;;;2.10;;
17372;SDS011;8803;48.116;11.590;2023-07-29T11:32:47;2.10;;;1.80;;
17372;SDS011;8803;48.116;11.590;2023-07-29T11:34:51;2.08;;;1.87;;
17372;SDS011;8803;48.116;11.590;2023-07-29T11:36:55;2.12;;;1.85;;
17372;SDS011;8803;48.116;11.590;2023-07-29T11:38:59;2.17;;;1.60;;
17372;SDS011;8803;48.116;11.590;2023-07-29T11:41:06;2.02;;;1.82;;
17372;SDS011;8803;48.116;11.590;2023-07-29T11:43:17;2.52;;;1.65;;
17372;SDS011;8803;48.116;11.590;2023-07-29T11:45:28;2.30;;;2.10;;
17372;SDS011;8803;48.116;11.590;2023-07-29T11:47:32;2.30;;;2.10;;
17372;SDS011;8803;48.116;11.590;2023-07-29T11:49:38;4.00;;;2.08;;
17372;SDS011;8803;48.116;11.590;2023-07-29T11:51:42;2.47;;;2.15;;
17372;SDS011;8803;48.116;11.590;2023-07-29T11:53:46;2.33;;;2.12;;
17372;SDS011;8803;48.116;11.590;2023-07-29T11:55:51;2.33;;;2.12;;
17372;SDS011;8803;48.116;11.590;2023-07-29T11:57:55;2.35;;;1.95;;
17372;SDS011;8803;48.116;11.590;2023-07-29T12:00:00;2.67;;;2.30;;
17372;SDS011;8803;48.116;11.590;2023-07-29T12:02:14;2.65;;;2.37;;
17372;SDS011;8803;48.116;11.590;2023-07-29T12:04:19;2.17;;;2.00;;
17372;SDS011;8803;48.116;11.590;2023-07-29T12:06:23;2.45;;;2.20;;
17372;SDS011;8803;48.116;11.590;2023-07-29T12:08:27;2.27;;;2.08;;
17372;SDS011;8803;48.116;11.590;2023-07-29T12:10:32;3.45;;;3.12;;
17372;SDS011;8803;48.116;11.590;2023-07-29T12:12:38;3.10;;;2.62;;
17372;SDS011;8803;48.116;11.590;2023-07-29T12:14:53;2.95;;;2.62;;
17372;SDS011;8803;48.116;11.590;2023-07-29T12:17:00;2.80;;;2.50;;
17372;SDS011;8803;48.116;11.590;2023-07-29T12:19:04;2.75;;;2.55;;
17372;SDS011;8803;48.116;11.590;2023-07-29T12:21:08;5.20;;;2.92;;
17372;SDS011;8803;48.116;11.590;2023-07-29T12:23:24;2.67;;;2.47;;
17372;SDS011;8803;48.116;11.590;2023-07-29T12:25:28;3.33;;;2.40;;
17372;SDS011;8803;48.116;11.590;2023-07-29T12:27:32;2.45;;;2.25;;
17372;SDS011;8803;48.116;11.590;2023-07-29T12:29:39;2.62;;;2.42;;
17372;SDS011;8803;48.116;11.590;2023-07-29T12:31:46;2.60;;;2.40;;
17372;SDS011;8803;48.116;11.590;2023-07-29T12:33:50;3.42;;;3.10;;
17372;SDS011;8803;48.116;11.590;2023-07-29T12:36:04;3.98;;;2.90;;
17372;SDS011;8803;48.116;11.590;2023-07-29T12:38:08;3.25;;;2.33;;
17372;SDS011;8803;48.116;11.590;2023-07-29T12:40:30;3.65;;;2.40;;
17372;SDS011;8803;48.116;11.590;2023-07-29T12:42:34;2.40;;;2.20;;